Time;durP1;ratioP1;P1;durP2;ratioP2;P2;SDS_P1;SDS_P2;PMS_P1;PMS_P2;Temp;Humidity;BMP_temperature;BMP_pressure;BME280_temperature;BME280_humidity;BME280_pressure;Samples;Min_cycle;Max_cycle;Signal;HPM_P1;HPM_P2
2021/09/17 00:03:35;;;;;;;6.93;6.45;;;;;;;15.02;82.51;99909.06;10403398;28;20136;-74
2021/09/17 00:08:37;;;;;;;7.10;6.45;;;;;;;15.02;83.01;99907.28;10405087;28;20117;-74
2021/09/17 00:13:39;;;;;;;7.07;6.57;;;;;;;15.05;83.02;99912.41;10423167;28;20505;-72
2021/09/17 00:18:41;;;;;;;7.85;7.07;;;;;;;15.13;83.12;99904.06;10404533;28;20128;-72
2021/09/17 00:23:42;;;;;;;6.80;6.40;;;;;;;15.09;83.28;99905.16;10422169;28;20046;-73
2021/09/17 00:28:45;;;;;;;6.93;6.53;;;;;;;15.04;83.78;99909.84;10403252;28;20112;-72
2021/09/17 00:33:47;;;;;;;7.85;7.10;;;;;;;15.10;83.97;99907.75;10420773;28;20041;-72
2021/09/17 00:38:48;;;;;;;7.68;6.95;;;;;;;15.31;82.23;99908.38;10387273;28;20148;-73
2021/09/17 00:43:50;;;;;;;7.22;6.50;;;;;;;15.25;83.23;99910.50;10402751;28;20053;-73
2021/09/17 00:48:51;;;;;;;6.80;6.30;;;;;;;15.27;83.08;99908.63;10401702;28;20045;-73
2021/09/17 00:53:53;;;;;;;6.13;5.65;;;;;;;15.21;83.11;99903.66;10403027;28;20037;-73
2021/09/17 00:58:55;;;;;;;6.15;5.65;;;;;;;15.21;82.67;99909.81;10401946;28;20086;-72
2021/09/17 01:03:56;;;;;;;4.63;4.25;;;;;;;15.23;82.41;99901.78;10385519;28;20526;-72
2021/09/17 01:09:00;;;;;;;4.47;3.95;;;;;;;15.35;80.68;99893.19;10401457;28;20052;-73
2021/09/17 01:14:02;;;;;;;4.78;3.17;;;;;;;15.16;82.05;99888.03;10419570;28;20069;-73
2021/09/17 01:19:03;;;;;;;3.28;2.97;;;;;;;15.24;81.36;99892.91;10418641;28;20488;-72
2021/09/17 01:24:05;;;;;;;3.63;3.08;;;;;;;15.11;81.90;99880.31;10401956;28;20056;-72
2021/09/17 01:29:07;;;;;;;4.20;2.75;;;;;;;15.29;80.78;99878.47;10418074;28;20033;-73
2021/09/17 01:34:09;;;;;;;3.83;2.53;;;;;;;15.35;80.16;99878.13;10418307;28;20107;-72
2021/09/17 01:39:10;;;;;;;4.95;2.90;;;;;;;15.24;81.17;99879.69;10423572;28;20049;-72
2021/09/17 01:44:12;;;;;;;3.25;2.85;;;;;;;15.34;80.46;99879.09;10425741;28;20479;-72
2021/09/17 01:49:14;;;;;;;3.58;3.25;;;;;;;15.33;80.60;99871.22;10408144;28;20045;-73
2021/09/17 01:54:15;;;;;;;3.95;3.22;;;;;;;15.38;80.76;99874.50;10426790;28;20045;-72
2021/09/17 01:59:17;;;;;;;4.10;2.90;;;;;;;15.41;80.93;99873.47;10407934;28;20503;-72
2021/09/17 02:04:19;;;;;;;4.45;3.05;;;;;;;15.44;80.40;99871.50;10425631;28;20053;-73
2021/09/17 02:09:20;;;;;;;5.97;3.17;;;;;;;15.23;81.78;99857.63;10425977;28;20464;-72
2021/09/17 02:14:23;;;;;;;4.63;3.10;;;;;;;15.20;81.90;99863.09;10407673;28;20057;-71
2021/09/17 02:19:24;;;;;;;3.42;3.08;;;;;;;15.22;81.95;99858.56;10391849;28;20045;-71
2021/09/17 02:24:26;;;;;;;4.13;3.35;;;;;;;15.21;81.88;99854.19;10426337;28;20041;-73
2021/09/17 02:29:27;;;;;;;4.28;3.13;;;;;;;15.14;82.88;99852.84;10426124;28;20464;-72
2021/09/17 02:34:29;;;;;;;3.55;3.25;;;;;;;15.29;81.38;99852.00;10408313;28;20096;-74
2021/09/17 02:39:30;;;;;;;5.22;3.38;;;;;;;15.20;82.52;99860.44;10425081;28;20037;-72
2021/09/17 02:44:32;;;;;;;3.05;2.75;;;;;;;15.07;82.66;99852.28;10408318;28;20053;-73
2021/09/17 02:49:34;;;;;;;9.02;3.45;;;;;;;14.98;83.11;99852.78;10425352;28;20053;-73
2021/09/17 02:54:35;;;;;;;3.63;2.55;;;;;;;15.20;81.44;99841.91;10424665;28;20049;-72
2021/09/17 02:59:37;;;;;;;4.50;2.63;;;;;;;15.21;81.08;99840.13;10411834;28;20065;-71
2021/09/17 03:04:39;;;;;;;2.90;2.60;;;;;;;15.19;80.97;99840.22;10427761;28;20037;-74
2021/09/17 03:09:40;;;;;;;2.92;2.15;;;;;;;14.97;82.59;99837.00;10427814;28;20479;-73
2021/09/17 03:14:42;;;;;;;2.83;2.17;;;;;;;15.16;80.82;99834.22;10423131;28;20568;-72
2021/09/17 03:19:43;;;;;;;4.32;2.55;;;;;;;15.08;81.87;99842.56;10424327;28;20045;-72
2021/09/17 03:24:45;;;;;;;3.03;2.72;;;;;;;15.14;80.82;99836.97;10389820;28;20049;-72
2021/09/17 03:29:47;;;;;;;2.58;2.38;;;;;;;15.12;81.56;99830.88;10423188;28;20041;-72
2021/09/17 03:34:48;;;;;;;4.68;3.30;;;;;;;15.00;82.27;99826.22;10405622;28;20053;-73
2021/09/17 03:39:50;;;;;;;3.95;3.65;;;;;;;15.18;81.02;99827.03;10423144;28;20041;-73
2021/09/17 03:44:51;;;;;;;4.13;3.20;;;;;;;15.23;81.14;99824.97;10422464;28;20080;-73
2021/09/17 03:49:53;;;;;;;4.75;4.15;;;;;;;15.18;81.09;99819.09;10423375;28;20104;-72
2021/09/17 03:54:55;;;;;;;4.30;3.92;;;;;;;14.91;83.24;99826.72;10404797;28;20052;-73
2021/09/17 03:59:56;;;;;;;4.80;4.00;;;;;;;14.94;83.16;99830.06;10422480;28;20041;-73
2021/09/17 04:04:58;;;;;;;4.82;4.43;;;;;;;15.14;81.25;99821.06;10405380;28;20438;-73
2021/09/17 04:10:00;;;;;;;6.13;5.63;;;;;;;15.22;80.76;99823.28;10424058;28;20038;-73
2021/09/17 04:15:03;;;;;;;6.10;5.53;;;;;;;15.18;80.86;99812.00;10406139;28;20060;-71
2021/09/17 04:20:06;;;;;;;6.10;5.60;;;;;;;15.02;81.77;99812.00;10405349;28;20042;-72
2021/09/17 04:25:09;;;;;;;6.45;5.95;;;;;;;14.91;82.35;99811.69;10423171;28;20519;-73
2021/09/17 04:30:14;;;;;;;6.60;6.10;;;;;;;14.97;81.32;99815.81;10423522;28;20501;-73
2021/09/17 04:35:16;;;;;;;6.18;5.60;;;;;;;15.03;81.03;99818.97;10404993;28;20052;-73
2021/09/17 04:40:17;;;;;;;9.15;5.65;;;;;;;15.09;80.23;99823.09;10419926;28;20041;-74
2021/09/17 04:45:19;;;;;;;5.95;5.47;;;;;;;15.08;80.46;99824.03;10402618;28;20096;-72
2021/09/17 04:50:21;;;;;;;6.25;5.65;;;;;;;15.01;80.97;99820.88;10402698;28;20103;-72
2021/09/17 04:55:22;;;;;;;7.10;6.60;;;;;;;15.06;80.86;99828.56;10404725;28;20148;-73
2021/09/17 05:00:24;;;;;;;6.82;6.25;;;;;;;15.05;80.52;99837.41;10421079;28;20056;-72
2021/09/17 05:05:26;;;;;;;8.27;6.80;;;;;;;15.08;80.47;99824.88;10420912;28;20577;-72
2021/09/17 05:10:28;;;;;;;7.30;6.80;;;;;;;15.09;79.97;99829.22;10419244;28;20072;-73
2021/09/17 05:15:29;;;;;;;8.40;7.60;;;;;;;15.08;80.42;99834.63;10418668;28;20411;-73
2021/09/17 05:20:31;;;;;;;7.13;6.63;;;;;;;15.09;80.10;99838.97;10400657;28;20056;-72
2021/09/17 05:25:33;;;;;;;7.50;6.63;;;;;;;14.98;80.32;99838.69;10400516;28;20491;-73
2021/09/17 05:30:34;;;;;;;7.80;6.93;;;;;;;14.94;80.47;99838.00;10400643;28;20104;-72
2021/09/17 05:35:36;;;;;;;7.32;6.70;;;;;;;15.02;79.93;99843.75;10418073;28;20053;-73
2021/09/17 05:40:38;;;;;;;6.95;6.45;;;;;;;15.07;79.50;99839.06;10418242;28;20060;-72
2021/09/17 05:45:39;;;;;;;6.28;5.88;;;;;;;15.10;79.06;99836.25;10417721;28;20068;-73
2021/09/17 05:50:41;;;;;;;8.93;5.90;;;;;;;15.01;79.56;99839.41;10417685;28;20407;-73
2021/09/17 05:55:43;;;;;;;6.25;5.65;;;;;;;15.11;78.24;99840.63;10399555;28;20095;-71
2021/09/17 06:00:44;;;;;;;6.40;5.70;;;;;;;15.18;77.53;99843.78;10416959;28;20171;-71
2021/09/17 06:05:46;;;;;;;4.50;3.92;;;;;;;15.26;77.50;99851.31;10399359;28;20045;-73
2021/09/17 06:10:48;;;;;;;5.38;4.65;;;;;;;15.18;77.58;99842.91;10398392;28;20069;-73
2021/09/17 06:15:50;;;;;;;5.97;4.10;;;;;;;15.33;76.91;99850.06;10416465;28;20046;-73
2021/09/17 06:21:11;;;;;;;5.60;4.95;;;;;;;15.30;76.11;99851.06;10403784;28;20073;-73
2021/09/17 06:26:13;;;;;;;5.13;4.10;;;;;;;15.22;76.07;99844.47;10423701;28;20410;-72
2021/09/17 06:31:15;;;;;;;5.70;4.65;;;;;;;15.28;75.59;99844.16;10425025;28;20132;-73
2021/09/17 06:36:17;;;;;;;3.95;3.63;;;;;;;15.36;75.39;99845.44;10407479;28;20053;-72
2021/09/17 06:41:19;;;;;;;4.65;3.10;;;;;;;15.27;75.78;99840.66;10390909;28;20140;-71
2021/09/17 06:46:20;;;;;;;4.05;3.67;;;;;;;15.38;74.93;99835.63;10406359;28;20050;-72
2021/09/17 06:51:23;;;;;;;4.32;3.38;;;;;;;15.43;74.66;99839.81;10466046;22;20061;-70
2021/09/17 06:56:24;;;;;;;4.70;3.15;;;;;;;15.35;75.09;99846.34;10462109;28;20072;-70
2021/09/17 07:01:26;;;;;;;4.72;3.13;;;;;;;15.24;75.73;99851.41;10443863;28;20139;-70
2021/09/17 07:06:32;;;;;;;3.55;2.90;;;;;;;15.30;75.32;99848.41;10462043;28;20052;-70
2021/09/17 07:11:34;;;;;;;4.47;2.67;;;;;;;15.29;76.95;99838.75;10461734;28;20036;-71
2021/09/17 07:16:35;;;;;;;3.58;2.88;;;;;;;15.37;75.70;99844.50;10461021;28;20048;-70
2021/09/17 07:21:37;;;;;;;2.60;2.40;;;;;;;15.41;76.72;99850.50;10460722;28;20045;-69
2021/09/17 07:26:39;;;;;;;3.08;1.92;;;;;;;15.44;75.43;99850.31;10460310;28;20044;-70
2021/09/17 07:31:41;;;;;;;4.30;2.22;;;;;;;15.66;73.24;99850.00;10460117;28;20045;-69
2021/09/17 07:36:43;;;;;;;2.58;2.00;;;;;;;15.54;74.61;99861.28;10458881;28;20127;-70
2021/09/17 07:41:44;;;;;;;1.88;1.73;;;;;;;15.62;74.26;99845.78;10459408;28;20051;-70
2021/09/17 07:46:46;;;;;;;2.35;1.80;;;;;;;15.70;73.32;99861.28;10459533;28;20045;-70
2021/09/17 07:51:48;;;;;;;2.50;2.30;;;;;;;15.46;78.14;99869.63;10459770;28;20063;-71
2021/09/17 07:56:55;;;;;;;3.15;2.85;;;;;;;14.92;82.84;99878.69;10459445;28;20099;-71
2021/09/17 08:02:00;;;;;;;4.90;2.80;;;;;;;14.75;85.86;99866.38;10459455;28;20114;-69
2021/09/17 08:07:02;;;;;;;3.78;3.40;;;;;;;15.12;84.35;99866.13;10438282;28;20049;-70
2021/09/17 08:12:04;;;;;;;4.53;4.13;;;;;;;15.25;85.50;99868.13;10425603;28;20045;-70
2021/09/17 08:17:06;;;;;;;4.72;4.32;;;;;;;15.42;84.54;99868.09;10418857;28;20108;-70
2021/09/17 08:22:10;;;;;;;3.42;3.10;;;;;;;15.74;79.44;99863.69;10458086;28;20140;-74
2021/09/17 08:27:11;;;;;;;2.83;2.17;;;;;;;15.77;78.63;99870.63;10457842;28;20071;-70
2021/09/17 08:32:13;;;;;;;2.55;1.40;;;;;;;15.86;75.75;99865.66;10457664;28;20048;-69
2021/09/17 08:37:15;;;;;;;1.65;1.15;;;;;;;16.06;76.03;99869.81;10457069;28;20116;-69
2021/09/17 08:42:18;;;;;;;2.15;1.00;;;;;;;15.99;74.56;99864.97;10444454;28;20038;-70
2021/09/17 08:47:20;;;;;;;1.85;1.00;;;;;;;16.04;74.51;99866.41;10439119;28;20127;-70
2021/09/17 08:52:23;;;;;;;5.18;1.40;;;;;;;16.31;74.66;99876.38;10456413;28;20043;-69
2021/09/17 08:57:25;;;;;;;1.50;1.40;;;;;;;16.35;74.72;99869.97;10456497;28;20037;-69
2021/09/17 09:02:29;;;;;;;2.40;2.20;;;;;;;16.19;75.71;99880.59;10456251;28;20052;-70
2021/09/17 09:07:35;;;;;;;2.00;1.90;;;;;;;15.56;81.00;99888.53;10456320;28;20056;-70
2021/09/17 09:12:52;;;;;;;2.38;2.17;;;;;;;15.43;82.93;99888.34;10456039;28;20076;-70
2021/09/17 09:18:13;;;;;;;1.95;1.80;;;;;;;15.41;82.58;99887.56;10431747;28;20046;-70
2021/09/17 09:23:18;;;;;;;2.35;1.20;;;;;;;15.49;77.66;99887.13;10397009;28;20055;-70
2021/09/17 09:28:33;;;;;;;1.13;1.00;;;;;;;15.88;76.38;99878.81;10414748;28;20483;-70
2021/09/17 09:33:36;;;;;;;1.30;0.90;;;;;;;16.11;73.76;99881.03;10415110;28;20065;-70
2021/09/17 09:38:41;;;;;;;1.27;0.90;;;;;;;16.48;72.66;99883.38;10414743;28;20383;-71
2021/09/17 09:43:57;;;;;;;0.88;0.85;;;;;;;16.79;72.21;99877.13;10415166;28;20041;-70
2021/09/17 09:48:59;;;;;;;1.58;1.15;;;;;;;16.76;71.00;99870.19;10453466;28;20045;-70
2021/09/17 09:54:03;;;;;;;1.25;0.80;;;;;;;17.25;69.03;99861.88;10455578;28;20052;-70
2021/09/17 09:59:07;;;;;;;1.52;1.10;;;;;;;17.34;69.88;99858.66;10441784;28;20045;-70
2021/09/17 10:04:11;;;;;;;2.20;0.90;;;;;;;17.89;66.85;99857.84;10446015;28;20045;-70
2021/09/17 10:09:12;;;;;;;1.55;0.47;;;;;;;17.96;63.36;99862.75;10462816;28;20040;-69
2021/09/17 10:14:14;;;;;;;1.20;0.50;;;;;;;17.71;62.47;99853.69;10462846;28;20045;-70
2021/09/17 10:19:20;;;;;;;1.05;0.40;;;;;;;17.17;62.13;99852.69;10428367;28;20045;-71
2021/09/17 10:24:25;;;;;;;1.38;0.80;;;;;;;16.96;64.58;99852.22;10403997;28;20487;-70
2021/09/17 10:29:38;;;;;;;1.23;0.82;;;;;;;16.72;66.39;99865.13;10421168;28;20095;-69
2021/09/17 10:34:41;;;;;;;2.10;0.80;;;;;;;16.45;67.24;99857.00;10422961;28;20073;-69
2021/09/17 10:40:07;;;;;;;1.58;1.20;;;;;;;16.58;67.96;99855.34;10420569;28;20072;-70
2021/09/17 10:45:11;;;;;;;0.95;0.80;;;;;;;16.63;69.97;99859.41;10420896;28;20104;-70
2021/09/17 10:50:14;;;;;;;1.75;1.13;;;;;;;16.71;68.34;99856.31;10420164;28;20033;-70
2021/09/17 10:55:43;;;;;;;2.53;1.02;;;;;;;16.44;67.50;99856.16;10420015;28;20426;-69
2021/09/17 11:01:04;;;;;;;2.25;0.88;;;;;;;16.35;69.26;99854.03;10420113;28;20041;-69
2021/09/17 11:06:22;;;;;;;2.55;1.00;;;;;;;16.60;67.63;99848.13;10419847;28;20045;-70
2021/09/17 11:11:32;;;;;;;1.23;0.80;;;;;;;16.48;68.03;99846.22;10401052;28;20121;-68
2021/09/17 11:16:34;;;;;;;1.05;0.85;;;;;;;16.56;67.01;99849.28;10419630;28;20045;-69
2021/09/17 11:21:45;;;;;;;7.95;0.60;;;;;;;16.67;66.24;99849.47;10419582;28;20050;-69
2021/09/17 11:26:50;;;;;;;1.00;0.50;;;;;;;16.86;65.01;99849.25;10420560;28;20045;-68
2021/09/17 11:31:55;;;;;;;0.68;0.68;;;;;;;16.77;65.27;99849.81;10437828;28;20045;-70
2021/09/17 11:37:00;;;;;;;1.50;0.73;;;;;;;16.90;65.20;99850.78;10415777;28;20410;-70
2021/09/17 11:42:08;;;;;;;2.15;0.70;;;;;;;16.77;66.84;99842.69;10421629;28;20068;-69
2021/09/17 11:47:19;;;;;;;2.40;0.60;;;;;;;16.96;66.40;99833.63;10460671;28;20044;-70
2021/09/17 11:52:21;;;;;;;1.00;0.88;;;;;;;16.97;65.82;99840.66;10462135;28;20048;-69
2021/09/17 11:57:29;;;;;;;1.20;0.77;;;;;;;16.89;64.80;99835.78;10442985;28;20053;-70
2021/09/17 12:02:31;;;;;;;1.80;0.55;;;;;;;16.86;66.50;99841.28;10460986;28;20106;-69
2021/09/17 12:07:35;;;;;;;2.65;0.77;;;;;;;16.95;66.62;99838.06;10461746;28;20549;-69
2021/09/17 12:12:43;;;;;;;1.50;0.80;;;;;;;16.98;67.23;99831.72;10462524;28;20045;-69
2021/09/17 12:17:55;;;;;;;1.88;1.17;;;;;;;17.00;66.94;99830.69;10458950;28;20045;-70
2021/09/17 12:22:58;;;;;;;2.58;1.08;;;;;;;16.71;66.74;99834.22;10433065;28;20041;-69
2021/09/17 12:28:05;;;;;;;1.42;1.08;;;;;;;16.53;70.44;99845.00;10454596;28;20162;-70
2021/09/17 12:33:24;;;;;;;1.98;1.40;;;;;;;16.34;72.49;99845.22;10494837;28;20128;-69
2021/09/17 12:38:29;;;;;;;1.85;1.65;;;;;;;16.81;72.88;99833.59;10501589;28;20455;-69
2021/09/17 12:43:33;;;;;;;2.08;1.23;;;;;;;16.87;73.52;99830.59;10485373;28;20402;-69
2021/09/17 12:48:39;;;;;;;2.33;1.25;;;;;;;16.97;70.68;99830.88;10482573;28;20059;-68
2021/09/17 12:53:45;;;;;;;1.17;1.00;;;;;;;16.76;70.42;99832.19;10499359;28;20052;-67
2021/09/17 12:59:14;;;;;;;1.48;0.90;;;;;;;17.08;67.77;99828.41;10499018;28;20431;-68
2021/09/17 13:04:15;;;;;;;1.13;1.02;;;;;;;16.78;70.81;99838.28;10480004;28;20182;-68
2021/09/17 13:09:17;;;;;;;1.58;1.10;;;;;;;16.93;68.46;99825.84;10499049;28;20098;-68
2021/09/17 13:14:19;;;;;;;1.10;0.90;;;;;;;17.17;67.94;99820.81;10499751;28;20047;-68
2021/09/17 13:19:22;;;;;;;1.88;1.20;;;;;;;17.31;66.60;99807.50;10498904;28;20048;-68
2021/09/17 13:24:23;;;;;;;2.10;0.90;;;;;;;17.58;65.07;99818.22;10417797;28;20049;-68
2021/09/17 13:29:25;;;;;;;2.33;1.10;;;;;;;17.79;65.01;99818.66;10414827;28;20052;-68
2021/09/17 13:34:27;;;;;;;1.45;1.00;;;;;;;17.62;63.75;99806.44;10414207;28;20045;-68
2021/09/17 13:39:28;;;;;;;2.42;1.38;;;;;;;17.28;65.39;99805.06;10414902;28;20450;-68
2021/09/17 13:44:30;;;;;;;1.75;0.90;;;;;;;17.07;66.29;99813.41;10414820;28;20210;-68
2021/09/17 13:49:32;;;;;;;2.03;1.15;;;;;;;17.08;66.10;99815.13;10414948;28;20038;-68
2021/09/17 13:54:37;;;;;;;2.65;1.10;;;;;;;16.84;65.00;99816.66;10419449;28;20041;-68
2021/09/17 13:59:40;;;;;;;1.25;0.90;;;;;;;16.87;65.43;99809.34;10411388;28;20041;-68
2021/09/17 14:04:44;;;;;;;1.88;1.40;;;;;;;16.81;66.75;99822.13;10423823;28;20045;-68
2021/09/17 14:09:46;;;;;;;2.22;1.50;;;;;;;16.79;66.47;99814.28;10455725;28;20411;-68
2021/09/17 14:14:48;;;;;;;1.45;1.20;;;;;;;16.87;66.44;99812.00;10462228;28;20041;-69
2021/09/17 14:19:50;;;;;;;2.85;1.15;;;;;;;16.75;67.13;99814.56;10458302;28;20053;-69
2021/09/17 14:24:52;;;;;;;1.50;1.23;;;;;;;16.86;67.09;99817.38;10445458;28;20072;-68
2021/09/17 14:29:53;;;;;;;2.80;1.60;;;;;;;16.94;66.97;99815.13;10459885;28;20128;-69
2021/09/17 14:34:55;;;;;;;2.15;1.20;;;;;;;17.19;66.98;99825.09;10462849;28;20103;-68
2021/09/17 14:39:56;;;;;;;3.17;2.15;;;;;;;17.08;65.03;99817.78;10460531;28;20044;-67
2021/09/17 14:44:58;;;;;;;2.40;1.40;;;;;;;17.11;65.87;99822.06;10463452;28;20098;-68
2021/09/17 14:50:00;;;;;;;2.42;1.45;;;;;;;17.28;64.26;99805.06;10460407;28;20033;-69
2021/09/17 14:55:04;;;;;;;1.70;1.08;;;;;;;17.24;63.88;99816.84;10433746;28;20102;-68
2021/09/17 15:00:07;;;;;;;3.60;1.30;;;;;;;17.11;63.47;99814.09;10463827;28;20049;-68
2021/09/17 15:05:09;;;;;;;3.58;1.52;;;;;;;16.83;65.84;99812.28;10465863;28;20041;-67
2021/09/17 15:10:11;;;;;;;2.38;1.00;;;;;;;17.22;64.76;99808.97;10464372;28;20045;-68
2021/09/17 15:15:13;;;;;;;1.58;1.08;;;;;;;17.21;65.33;99817.03;10469856;28;20503;-68
2021/09/17 15:20:15;;;;;;;1.77;1.60;;;;;;;17.32;65.19;99811.91;10448452;28;20043;-68
2021/09/17 15:25:18;;;;;;;3.17;1.70;;;;;;;17.20;66.29;99817.97;10421447;28;20072;-69
2021/09/17 15:30:20;;;;;;;2.50;1.80;;;;;;;17.20;67.26;99810.84;10411070;28;20049;-69
2021/09/17 15:35:22;;;;;;;2.38;1.77;;;;;;;17.16;67.36;99817.31;10427713;28;20061;-69
2021/09/17 15:40:24;;;;;;;2.30;1.50;;;;;;;17.18;67.97;99806.56;10419832;28;20049;-69
2021/09/17 15:45:25;;;;;;;1.75;1.40;;;;;;;17.09;67.10;99814.19;10420703;28;20107;-69
2021/09/17 15:50:27;;;;;;;2.70;1.50;;;;;;;17.01;68.73;99819.13;10400559;28;20049;-69
2021/09/17 15:55:28;;;;;;;2.75;1.98;;;;;;;17.11;66.95;99812.28;10417694;28;20054;-69
2021/09/17 16:00:30;;;;;;;1.77;1.38;;;;;;;17.05;66.99;99817.13;10418407;28;20041;-69
2021/09/17 16:05:32;;;;;;;2.70;1.30;;;;;;;16.87;67.27;99809.34;10418269;28;20046;-68
2021/09/17 16:10:34;;;;;;;2.35;1.52;;;;;;;16.98;66.34;99814.00;10418178;28;20100;-69
2021/09/17 16:15:36;;;;;;;2.13;1.15;;;;;;;16.82;66.06;99811.44;10416666;28;20047;-69
2021/09/17 16:20:39;;;;;;;3.33;1.80;;;;;;;16.75;67.23;99814.56;10416631;28;20426;-69
2021/09/17 16:25:41;;;;;;;2.20;1.30;;;;;;;16.52;67.12;99816.75;10418855;28;20060;-69
2021/09/17 16:30:43;;;;;;;2.20;1.60;;;;;;;16.46;66.37;99819.75;10418468;28;20120;-69
2021/09/17 16:35:45;;;;;;;1.80;1.15;;;;;;;16.36;65.61;99824.75;10418519;28;20103;-69
2021/09/17 16:40:50;;;;;;;2.05;1.02;;;;;;;16.21;65.87;99825.69;10417529;28;20044;-68
2021/09/17 16:45:52;;;;;;;1.80;1.02;;;;;;;15.98;65.50;99829.66;10416345;28;20453;-68
2021/09/17 16:50:54;;;;;;;2.15;1.27;;;;;;;15.91;65.85;99833.59;10415797;28;20128;-68
2021/09/17 16:55:55;;;;;;;2.70;0.60;;;;;;;16.06;64.58;99834.50;10416891;28;20491;-68
2021/09/17 17:00:58;;;;;;;0.80;0.70;;;;;;;16.12;64.81;99832.38;10418684;28;20056;-69
2021/09/17 17:06:02;;;;;;;1.98;0.80;;;;;;;16.02;65.32;99827.66;10417734;28;20526;-69
2021/09/17 17:11:05;;;;;;;0.60;0.60;;;;;;;15.93;66.58;99826.41;10417473;28;20037;-69
2021/09/17 17:16:08;;;;;;;2.65;0.80;;;;;;;15.75;67.38;99832.75;10418633;28;20045;-69
2021/09/17 17:21:11;;;;;;;1.25;0.70;;;;;;;15.58;68.93;99836.28;10398290;28;20136;-68
2021/09/17 17:26:16;;;;;;;1.50;0.60;;;;;;;15.74;67.16;99825.75;10416348;28;20041;-69
2021/09/17 17:31:18;;;;;;;1.35;0.63;;;;;;;15.77;67.38;99829.06;10415821;28;20037;-69
2021/09/17 17:36:19;;;;;;;1.25;0.88;;;;;;;15.70;67.57;99825.06;10414856;28;20073;-70
2021/09/17 17:41:21;;;;;;;2.20;0.73;;;;;;;15.79;67.48;99818.38;10414097;28;20129;-69
2021/09/17 17:46:23;;;;;;;1.52;0.90;;;;;;;15.58;68.44;99821.28;10413955;28;20116;-69
2021/09/17 17:51:27;;;;;;;3.28;1.27;;;;;;;15.65;68.66;99832.41;10413924;28;20063;-68
2021/09/17 17:56:29;;;;;;;2.53;0.90;;;;;;;15.51;69.44;99829.66;10396380;28;20400;-69
2021/09/17 18:01:31;;;;;;;2.22;0.88;;;;;;;15.39;70.66;99829.38;10414703;28;20038;-70
2021/09/17 18:06:34;;;;;;;1.45;0.90;;;;;;;15.54;70.03;99832.13;10414889;28;20485;-68
2021/09/17 18:11:36;;;;;;;2.25;1.10;;;;;;;15.43;70.95;99835.34;10396790;28;20080;-69
2021/09/17 18:16:38;;;;;;;1.92;1.00;;;;;;;15.27;71.95;99848.59;10413892;28;20120;-69
2021/09/17 18:21:42;;;;;;;1.42;1.10;;;;;;;15.26;72.03;99841.56;10419234;28;20050;-69
2021/09/17 18:26:44;;;;;;;3.00;0.90;;;;;;;15.11;72.64;99840.63;10421577;28;20037;-69
2021/09/17 18:31:47;;;;;;;1.15;0.85;;;;;;;15.02;73.30;99845.53;10410901;28;20127;-68
2021/09/17 18:36:49;;;;;;;1.50;0.98;;;;;;;15.13;72.64;99841.38;10456808;28;20099;-69
2021/09/17 18:41:51;;;;;;;1.83;0.93;;;;;;;15.14;72.78;99848.41;10439287;28;20038;-69
2021/09/17 18:46:54;;;;;;;2.10;1.40;;;;;;;15.18;72.17;99849.06;10421324;28;20045;-69
2021/09/17 18:51:56;;;;;;;2.80;1.10;;;;;;;15.13;72.59;99856.41;10497852;22;20037;-83
2021/09/17 18:56:58;;;;;;;2.13;1.50;;;;;;;15.24;72.27;99859.34;10490301;28;20049;-82
2021/09/17 19:02:00;;;;;;;2.17;1.30;;;;;;;15.11;73.17;99853.00;10469582;28;20052;-84
2021/09/17 19:07:03;;;;;;;2.80;1.15;;;;;;;15.20;72.53;99855.16;10472605;28;20044;-83
2021/09/17 19:12:04;;;;;;;2.95;1.42;;;;;;;15.11;72.95;99855.63;10466801;28;20056;-81
2021/09/17 19:17:07;;;;;;;2.55;1.33;;;;;;;15.35;71.75;99854.31;10468236;28;20045;-80
2021/09/17 19:22:10;;;;;;;3.38;1.20;;;;;;;15.32;72.06;99857.16;10466725;28;20052;-83
2021/09/17 19:27:12;;;;;;;2.78;1.23;;;;;;;15.14;73.05;99859.00;10463547;28;20068;-81
2021/09/17 19:32:15;;;;;;;4.35;1.20;;;;;;;15.18;73.13;99861.44;10477597;28;20037;-81
2021/09/17 19:37:20;;;;;;;3.70;1.70;;;;;;;15.07;74.19;99862.88;10487385;28;20071;-82
2021/09/17 19:42:22;;;;;;;2.20;1.50;;;;;;;14.92;75.26;99858.41;10483087;28;20133;-80
2021/09/17 19:47:25;;;;;;;4.20;1.85;;;;;;;14.97;75.69;99861.66;10449077;28;20049;-81
2021/09/17 19:52:27;;;;;;;2.97;2.28;;;;;;;15.03;76.08;99858.69;10487849;28;20048;-80
2021/09/17 19:57:29;;;;;;;2.95;2.08;;;;;;;15.14;75.91;99859.00;10494494;28;20051;-81
2021/09/17 20:02:31;;;;;;;3.17;2.38;;;;;;;15.01;77.12;99857.06;10483498;28;20045;-80
2021/09/17 20:07:33;;;;;;;4.13;2.70;;;;;;;15.03;77.26;99861.34;10487290;28;20068;-80
2021/09/17 20:12:36;;;;;;;5.18;3.17;;;;;;;15.14;77.01;99860.78;10472988;28;20090;-82
2021/09/17 20:17:38;;;;;;;2.72;2.53;;;;;;;14.95;77.91;99865.31;10470335;28;20098;-81
2021/09/17 20:22:40;;;;;;;2.80;2.60;;;;;;;14.92;77.95;99869.00;10491453;28;20033;-82
2021/09/17 20:27:42;;;;;;;3.10;2.83;;;;;;;15.02;77.90;99872.00;10507980;28;20033;-81
2021/09/17 20:32:44;;;;;;;3.03;2.70;;;;;;;14.95;78.01;99873.25;10461461;28;20041;-81
2021/09/17 20:37:47;;;;;;;5.95;3.17;;;;;;;14.95;77.71;99862.66;10490045;28;20056;-79
2021/09/17 20:42:48;;;;;;;3.10;2.80;;;;;;;14.72;78.65;99866.53;10470604;28;20045;-82
2021/09/17 20:47:51;;;;;;;2.90;2.70;;;;;;;14.64;78.18;99880.13;10469634;28;20052;-82
2021/09/17 20:52:53;;;;;;;2.58;2.20;;;;;;;14.53;78.56;99872.75;10488024;28;20064;-79
2021/09/17 20:57:56;;;;;;;3.63;3.00;;;;;;;14.41;78.91;99878.63;10465225;28;20080;-83
2021/09/17 21:02:58;;;;;;;2.83;2.60;;;;;;;14.21;79.73;99879.63;10482047;28;20044;-80
2021/09/17 21:08:00;;;;;;;2.60;2.40;;;;;;;14.27;79.02;99884.59;10486069;28;20040;-80
2021/09/17 21:13:03;;;;;;;2.28;2.05;;;;;;;14.11;79.54;99892.41;10480149;28;20044;-82
2021/09/17 21:18:05;;;;;;;3.72;1.90;;;;;;;14.16;79.53;99883.41;10465482;28;20056;-82
2021/09/17 21:23:06;;;;;;;2.00;1.80;;;;;;;14.46;76.87;99879.25;10484131;28;20047;-81
2021/09/17 21:28:08;;;;;;;2.13;1.48;;;;;;;14.45;76.45;99877.53;10488313;28;20045;-81
2021/09/17 21:33:09;;;;;;;2.80;1.70;;;;;;;14.47;76.73;99872.16;10482722;28;20395;-84
2021/09/17 21:38:11;;;;;;;4.57;1.73;;;;;;;14.64;75.55;99880.13;10482504;28;20079;-83
2021/09/17 21:43:12;;;;;;;2.17;1.45;;;;;;;14.66;75.68;99880.06;10462517;28;20056;-80
2021/09/17 21:48:14;;;;;;;2.42;1.83;;;;;;;14.69;75.79;99880.75;10461547;28;20052;-82
2021/09/17 21:53:16;;;;;;;3.03;2.30;;;;;;;14.39;77.74;99886.63;10481227;28;20128;-82
2021/09/17 21:58:18;;;;;;;2.10;1.90;;;;;;;14.58;76.52;99880.47;10491004;28;20055;-82
2021/09/17 22:03:19;;;;;;;2.85;1.92;;;;;;;14.59;76.74;99877.72;10478166;28;20387;-84
2021/09/17 22:08:21;;;;;;;5.93;2.10;;;;;;;14.52;77.38;99881.63;10486465;28;20041;-83
2021/09/17 22:13:23;;;;;;;5.75;2.65;;;;;;;14.51;79.20;99886.97;10485143;28;20091;-81
2021/09/17 22:18:24;;;;;;;2.65;2.45;;;;;;;14.17;82.31;99891.28;10465343;28;20049;-81
2021/09/17 22:23:26;;;;;;;2.90;2.60;;;;;;;14.06;83.82;99889.13;10481301;28;20053;-81
2021/09/17 22:28:27;;;;;;;2.70;2.35;;;;;;;14.27;83.42;99889.88;10482625;28;20045;-84
2021/09/17 22:33:29;;;;;;;2.33;2.10;;;;;;;14.52;81.64;99889.56;10481962;28;20037;-82
2021/09/17 22:38:31;;;;;;;3.28;1.88;;;;;;;14.44;81.76;99883.75;10481610;28;20052;-81
2021/09/17 22:43:32;;;;;;;5.47;1.90;;;;;;;14.16;83.73;99888.69;10461714;28;20041;-83
2021/09/17 22:48:34;;;;;;;3.28;1.95;;;;;;;14.02;84.72;99884.94;10479975;28;20048;-81
2021/09/17 22:53:35;;;;;;;1.85;1.70;;;;;;;14.24;82.83;99884.75;10462546;28;20087;-82
2021/09/17 22:58:37;;;;;;;3.13;1.75;;;;;;;14.37;81.45;99879.69;10463785;28;20053;-83
2021/09/17 23:03:38;;;;;;;2.33;1.73;;;;;;;14.23;82.35;99882.19;10460809;28;20067;-82
2021/09/17 23:08:40;;;;;;;6.03;1.70;;;;;;;14.27;81.64;99879.31;10481010;28;20073;-83
2021/09/17 23:13:42;;;;;;;1.98;1.77;;;;;;;14.35;81.08;99878.94;10461794;28;20041;-80
2021/09/17 23:18:43;;;;;;;2.67;1.83;;;;;;;14.28;81.74;99880.16;10475556;28;20471;-82
2021/09/17 23:23:45;;;;;;;2.00;1.77;;;;;;;14.39;80.90;99883.16;10474380;28;20045;-82
2021/09/17 23:28:46;;;;;;;3.38;2.05;;;;;;;14.33;81.46;99886.06;10451930;28;20441;-81